Time;durP1;ratioP1;P1;durP2;ratioP2;P2;SDS_P1;SDS_P2;PMS_P1;PMS_P2;Temp;Humidity;BMP_temperature;BMP_pressure;BME280_temperature;BME280_humidity;BME280_pressure;Samples;Min_cycle;Max_cycle;Signal;HPM_P1;HPM_P2
2023/05/21 00:02:23;0.00;0.00;0.62;0.00;0.00;0.62;4.33;3.93;;;26.00;23.80;;;;;;2261149;61;20439;-66
2023/05/21 00:05:10;0.00;0.00;0.62;0.00;0.00;0.62;4.73;4.00;;;26.00;23.80;;;;;;2262494;61;20440;-65
2023/05/21 00:07:54;0.00;0.00;0.62;0.00;0.00;0.62;5.20;3.80;;;26.00;23.90;;;;;;2260255;61;20419;-65
2023/05/21 00:10:39;0.00;0.00;0.62;0.00;0.00;0.62;4.77;4.37;;;26.00;23.90;;;;;;2261604;61;20777;-66
2023/05/21 00:13:24;0.00;0.00;0.62;0.00;0.00;0.62;4.07;3.67;;;26.00;23.90;;;;;;2261943;61;20380;-64
2023/05/21 00:16:10;0.00;0.00;0.62;0.00;0.00;0.62;3.77;3.40;;;26.00;23.90;;;;;;2259584;61;20361;-66
2023/05/21 00:18:56;0.00;0.00;0.62;0.00;0.00;0.62;3.77;3.47;;;26.00;23.90;;;;;;2262310;61;20372;-66
2023/05/21 00:21:44;0.00;0.00;0.62;0.00;0.00;0.62;3.83;3.50;;;26.00;23.90;;;;;;2261355;61;20472;-66
2023/05/21 00:24:29;0.00;0.00;0.62;0.00;0.00;0.62;3.83;3.53;;;26.00;23.90;;;;;;2261237;61;20430;-66
2023/05/21 00:27:14;0.00;0.00;0.62;0.00;0.00;0.62;4.07;3.70;;;26.00;23.90;;;;;;2262845;61;20400;-66
2023/05/21 00:29:59;0.00;0.00;0.62;0.00;0.00;0.62;3.63;3.33;;;26.00;23.90;;;;;;2259650;61;20365;-66
2023/05/21 00:32:44;0.00;0.00;0.62;0.00;0.00;0.62;3.80;3.40;;;26.00;23.90;;;;;;2264838;61;20404;-64
2023/05/21 00:35:29;0.00;0.00;0.62;0.00;0.00;0.62;4.67;3.83;;;26.00;23.90;;;;;;2261395;61;20427;-65
2023/05/21 00:38:17;0.00;0.00;0.62;0.00;0.00;0.62;3.67;3.37;;;26.00;23.90;;;;;;2261377;61;20415;-66
2023/05/21 00:41:02;0.00;0.00;0.62;0.00;0.00;0.62;3.80;3.50;;;26.00;23.90;;;;;;2262658;61;20385;-65
2023/05/21 00:43:47;0.00;0.00;0.62;0.00;0.00;0.62;3.80;3.50;;;26.00;23.90;;;;;;2262713;61;20420;-64
2023/05/21 00:46:31;0.00;0.00;0.62;0.00;0.00;0.62;3.97;3.67;;;26.00;24.00;;;;;;2262108;61;20360;-64
2023/05/21 00:49:16;0.00;0.00;0.62;0.00;0.00;0.62;4.13;3.73;;;26.00;24.00;;;;;;2262543;61;20411;-65
2023/05/21 00:52:01;0.00;0.00;0.62;0.00;0.00;0.62;4.57;4.17;;;26.00;23.90;;;;;;2260641;61;20356;-65
2023/05/21 00:54:50;0.00;0.00;0.62;0.00;0.00;0.62;4.20;3.80;;;26.00;24.00;;;;;;2262027;61;20379;-66
2023/05/21 00:57:38;0.00;0.00;0.62;0.00;0.00;0.62;3.63;3.33;;;26.00;24.00;;;;;;2261110;61;20815;-66
2023/05/21 01:00:25;0.00;0.00;0.62;0.00;0.00;0.62;3.90;3.60;;;26.00;23.90;;;;;;2261633;61;20929;-66
2023/05/21 01:03:11;0.00;0.00;0.62;0.00;0.00;0.62;4.00;3.60;;;26.00;24.00;;;;;;2262300;61;20396;-64
2023/05/21 01:05:58;0.00;0.00;0.62;0.00;0.00;0.62;3.90;3.60;;;25.90;24.50;;;;;;2260288;61;20808;-66
2023/05/21 01:08:44;0.00;0.00;0.62;0.00;0.00;0.62;4.80;4.30;;;26.00;24.00;;;;;;2261670;61;21213;-65
2023/05/21 01:11:38;0.00;0.00;0.62;0.00;0.00;0.62;4.30;3.90;;;26.00;24.00;;;;;;2260774;61;20409;-66
2023/05/21 01:14:23;0.00;0.00;0.62;0.00;0.00;0.62;3.70;3.40;;;26.00;24.00;;;;;;2261608;61;20411;-65
2023/05/21 01:17:09;0.00;0.00;0.62;0.00;0.00;0.62;3.70;3.40;;;26.00;24.00;;;;;;2261881;61;20454;-64
2023/05/21 01:19:56;0.00;0.00;0.62;0.00;0.00;0.62;4.23;3.83;;;26.00;24.00;;;;;;2260334;61;20365;-65
2023/05/21 01:22:42;0.00;0.00;0.62;0.00;0.00;0.62;4.43;4.03;;;26.00;24.00;;;;;;2261658;61;20481;-66
2023/05/21 01:25:28;0.00;0.00;0.62;0.00;0.00;0.62;3.53;3.23;;;26.00;24.00;;;;;;2261125;61;20360;-65
2023/05/21 01:28:14;0.00;0.00;0.62;0.00;0.00;0.62;3.37;3.07;;;26.00;24.00;;;;;;2261454;61;20433;-66
2023/05/21 01:31:06;0.00;0.00;0.62;0.00;0.00;0.62;3.90;3.47;;;26.00;24.00;;;;;;2261805;61;20392;-65
2023/05/21 01:33:53;0.00;0.00;0.62;0.00;0.00;0.62;3.53;3.23;;;25.90;24.00;;;;;;2259884;61;20380;-66
2023/05/21 01:36:42;0.00;0.00;0.62;0.00;0.00;0.62;4.40;3.57;;;25.90;24.00;;;;;;2261339;61;20361;-65
2023/05/21 01:39:32;0.00;0.00;0.62;0.00;0.00;0.62;4.13;3.60;;;26.00;24.00;;;;;;2263211;61;20777;-63
2023/05/21 01:42:20;0.00;0.00;0.62;0.00;0.00;0.62;3.80;3.50;;;25.90;24.00;;;;;;2260682;61;20527;-63
2023/05/21 01:45:07;0.00;0.00;0.62;0.00;0.00;0.62;3.60;3.30;;;25.90;24.00;;;;;;2259989;61;20388;-65
2023/05/21 01:47:55;0.00;0.00;0.62;0.00;0.00;0.62;3.60;3.30;;;25.90;24.00;;;;;;2258031;61;20415;-66
2023/05/21 01:50:42;0.00;0.00;0.62;0.00;0.00;0.62;3.83;3.53;;;25.90;24.00;;;;;;2259200;61;20357;-65
2023/05/21 01:53:27;0.00;0.00;0.62;0.00;0.00;0.62;3.60;3.30;;;25.90;24.00;;;;;;2257758;61;20432;-65
2023/05/21 01:56:12;0.00;0.00;0.62;0.00;0.00;0.62;4.13;3.73;;;25.90;24.00;;;;;;2259959;61;20365;-65
2023/05/21 01:58:59;0.00;0.00;0.62;0.00;0.00;0.62;3.57;3.27;;;25.90;24.00;;;;;;2259269;61;20372;-65
2023/05/21 02:01:44;0.00;0.00;0.62;0.00;0.00;0.62;3.87;3.57;;;25.90;24.00;;;;;;2259343;61;20451;-64
2023/05/21 02:04:30;0.00;0.00;0.62;0.00;0.00;0.62;4.27;3.87;;;25.90;24.00;;;;;;2259563;61;20360;-64
2023/05/21 02:07:15;0.00;0.00;0.62;0.00;0.00;0.62;4.00;3.60;;;25.90;24.00;;;;;;2259224;61;20372;-65
2023/05/21 02:10:00;0.00;0.00;0.62;0.00;0.00;0.62;3.57;3.27;;;25.90;24.00;;;;;;2259815;61;20503;-64
2023/05/21 02:12:45;0.00;0.00;0.62;0.00;0.00;0.62;3.87;3.57;;;25.90;24.00;;;;;;2259987;61;20392;-64
2023/05/21 02:15:33;0.00;0.00;0.62;0.00;0.00;0.62;4.03;3.30;;;25.90;24.00;;;;;;2259349;61;20372;-64
2023/05/21 02:18:20;0.00;0.00;0.62;0.00;0.00;0.62;3.90;3.60;;;25.90;24.00;;;;;;2260655;61;20864;-65
2023/05/21 02:21:05;0.00;0.00;0.62;0.00;0.00;0.62;3.90;3.53;;;25.90;24.00;;;;;;2259786;61;20391;-65
2023/05/21 02:23:50;0.00;0.00;0.62;0.00;0.00;0.62;3.60;3.30;;;25.90;24.00;;;;;;2260023;61;20434;-65
2023/05/21 02:26:34;0.00;0.00;0.62;0.00;0.00;0.62;3.50;3.20;;;25.90;24.50;;;;;;2261176;61;20396;-64
2023/05/21 02:29:19;0.00;0.00;0.62;0.00;0.00;0.62;3.50;3.17;;;25.80;23.90;;;;;;2259101;61;20452;-65
2023/05/21 02:32:06;0.00;0.00;0.62;0.00;0.00;0.62;3.20;2.90;;;25.80;24.00;;;;;;2260576;61;20408;-65
2023/05/21 02:34:51;0.00;0.00;0.62;0.00;0.00;0.62;3.90;3.60;;;25.80;23.90;;;;;;2262881;61;20365;-65
2023/05/21 02:37:39;0.00;0.00;0.62;0.00;0.00;0.62;4.03;3.60;;;25.80;23.90;;;;;;2259675;61;20965;-65
2023/05/21 02:40:24;0.00;0.00;0.62;0.00;0.00;0.62;4.67;3.60;;;25.80;23.90;;;;;;2260480;61;20428;-65
2023/05/21 02:43:08;0.00;0.00;0.62;0.00;0.00;0.62;3.77;3.00;;;25.80;24.00;;;;;;2260229;61;20436;-64
2023/05/21 02:45:53;0.00;0.00;0.62;0.00;0.00;0.62;3.30;3.00;;;25.80;24.00;;;;;;2259779;61;20384;-65
2023/05/21 02:48:40;0.00;0.00;0.62;0.00;0.00;0.62;3.90;2.70;;;25.80;24.00;;;;;;2260803;61;20411;-65
2023/05/21 02:51:24;0.00;0.00;0.62;0.00;0.00;0.62;3.67;3.37;;;25.80;24.00;;;;;;2262326;61;20369;-64
2023/05/21 02:54:09;0.00;0.00;0.62;0.00;0.00;0.62;3.23;2.93;;;25.80;24.00;;;;;;2260601;61;20388;-65
2023/05/21 02:56:54;0.00;0.00;0.62;0.00;0.00;0.62;3.90;3.50;;;25.80;24.00;;;;;;2260315;61;20894;-65
2023/05/21 02:59:39;0.00;0.00;0.62;0.00;0.00;0.62;4.07;3.37;;;25.80;24.00;;;;;;2258962;61;20902;-65
2023/05/21 03:02:24;0.00;0.00;0.62;0.00;0.00;0.62;3.60;3.30;;;25.80;24.00;;;;;;2260499;61;20862;-64
2023/05/21 03:05:10;0.00;0.00;0.62;0.00;0.00;0.62;3.40;3.10;;;25.80;24.00;;;;;;2261272;61;20785;-65
2023/05/21 03:07:55;0.00;0.00;0.62;0.00;0.00;0.62;3.80;3.40;;;25.80;24.00;;;;;;2259845;61;20364;-65
2023/05/21 03:10:40;0.00;0.00;0.62;0.00;0.00;0.62;3.47;3.17;;;25.80;24.00;;;;;;2257404;61;20360;-66
2023/05/21 03:13:24;0.00;0.00;0.62;0.00;0.00;0.62;3.40;3.10;;;25.80;24.00;;;;;;2256707;61;20785;-65
2023/05/21 03:16:09;0.00;0.00;0.62;0.00;0.00;0.62;3.77;3.40;;;25.80;24.00;;;;;;2261214;61;20956;-65
2023/05/21 03:18:54;0.00;0.00;0.62;0.00;0.00;0.62;4.20;3.37;;;25.80;24.00;;;;;;2260256;61;20368;-65
2023/05/21 03:21:41;0.00;0.00;0.62;0.00;0.00;0.62;3.67;3.37;;;25.80;24.00;;;;;;2259869;61;20806;-64
2023/05/21 03:24:28;0.00;0.00;0.62;0.00;0.00;0.62;3.83;3.43;;;25.80;24.00;;;;;;2257719;61;20372;-65
2023/05/21 03:27:13;0.00;0.00;0.62;0.00;0.00;0.62;3.57;3.27;;;25.80;24.00;;;;;;2257428;61;20411;-65
2023/05/21 03:29:58;0.00;0.00;0.62;0.00;0.00;0.62;3.37;3.07;;;25.80;24.00;;;;;;2259162;61;20361;-65
2023/05/21 03:32:45;0.00;0.00;0.62;0.00;0.00;0.62;3.43;3.13;;;25.80;24.00;;;;;;2254923;61;20420;-66
2023/05/21 03:35:30;0.00;0.00;0.62;0.00;0.00;0.62;3.20;2.90;;;25.80;24.00;;;;;;2259987;61;20361;-65
2023/05/21 03:38:16;0.00;0.00;0.62;0.00;0.00;0.62;3.60;3.07;;;25.80;24.00;;;;;;2260846;61;20360;-66
2023/05/21 03:41:01;0.00;0.00;0.62;0.00;0.00;0.62;3.50;3.20;;;25.80;24.00;;;;;;2257059;61;20384;-66
2023/05/21 03:43:46;0.00;0.00;0.62;0.00;0.00;0.62;3.53;2.97;;;25.80;24.00;;;;;;2256464;61;20388;-66
2023/05/21 03:46:32;0.00;0.00;0.62;0.00;0.00;0.62;3.40;3.10;;;25.80;24.00;;;;;;2257550;61;20360;-65
2023/05/21 03:49:21;0.00;0.00;0.62;0.00;0.00;0.62;3.67;3.20;;;25.80;24.00;;;;;;2256978;61;20365;-65
2023/05/21 03:52:08;0.00;0.00;0.62;0.00;0.00;0.62;3.00;2.70;;;25.80;24.00;;;;;;2256569;61;20411;-65
2023/05/21 03:54:54;0.00;0.00;0.62;0.00;0.00;0.62;4.07;3.60;;;25.80;24.00;;;;;;2257655;61;21068;-65
2023/05/21 03:57:40;0.00;0.00;0.62;0.00;0.00;0.62;2.90;2.67;;;25.70;24.00;;;;;;2256878;61;20520;-66
2023/05/21 04:00:25;0.00;0.00;0.62;0.00;0.00;0.62;3.20;2.90;;;25.80;24.00;;;;;;2257021;61;20793;-66
2023/05/21 04:03:10;0.00;0.00;0.62;0.00;0.00;0.62;3.33;3.00;;;25.70;24.00;;;;;;2257087;61;20411;-64
2023/05/21 04:05:55;0.00;0.00;0.62;0.00;0.00;0.62;3.70;3.13;;;25.80;24.00;;;;;;2256696;61;20384;-64
2023/05/21 04:08:41;0.00;0.00;0.62;0.00;0.00;0.62;3.53;3.20;;;25.70;24.00;;;;;;2257353;61;20501;-66
2023/05/21 04:11:28;0.00;0.00;0.62;0.00;0.00;0.62;3.53;3.07;;;25.70;24.00;;;;;;2257155;61;20353;-65
2023/05/21 04:14:12;0.00;0.00;0.62;0.00;0.00;0.62;3.00;2.70;;;25.70;24.00;;;;;;2259738;61;20515;-65
2023/05/21 04:16:58;0.00;0.00;0.62;0.00;0.00;0.62;2.43;2.23;;;25.70;24.00;;;;;;2257442;61;20767;-66
2023/05/21 04:19:42;0.00;0.00;0.62;0.00;0.00;0.62;3.20;2.83;;;25.80;24.00;;;;;;2259304;61;20369;-65
2023/05/21 04:22:27;0.00;0.00;0.62;0.00;0.00;0.62;3.63;2.90;;;25.70;24.00;;;;;;2259810;61;20945;-65
2023/05/21 04:25:12;0.00;0.00;0.62;0.00;0.00;0.62;3.27;2.97;;;25.70;24.10;;;;;;2259711;61;20456;-65
2023/05/21 04:27:59;0.00;0.00;0.62;0.00;0.00;0.62;3.27;2.90;;;25.70;24.10;;;;;;2259055;61;20912;-66
2023/05/21 04:30:45;0.00;0.00;0.62;0.00;0.00;0.62;2.93;2.70;;;25.70;24.00;;;;;;2259920;61;20770;-65
2023/05/21 04:33:30;0.00;0.00;0.62;0.00;0.00;0.62;3.97;3.20;;;25.70;24.00;;;;;;2259805;61;20412;-66
2023/05/21 04:36:16;0.00;0.00;0.62;0.00;0.00;0.62;3.33;3.03;;;25.70;24.00;;;;;;2261926;61;20357;-64
2023/05/21 04:39:01;0.00;0.00;0.62;0.00;0.00;0.62;2.80;2.60;;;25.70;24.00;;;;;;2259879;61;20435;-65
2023/05/21 04:41:49;0.00;0.00;0.62;0.00;0.00;0.62;3.37;2.97;;;25.70;24.00;;;;;;2259510;61;20420;-64
2023/05/21 04:44:37;0.00;0.00;0.62;0.00;0.00;0.62;3.63;3.20;;;25.70;24.10;;;;;;2262379;61;20415;-65
2023/05/21 04:47:22;0.00;0.00;0.62;0.00;0.00;0.62;3.17;2.87;;;25.70;24.10;;;;;;2262809;61;20897;-65
2023/05/21 04:50:09;0.00;0.00;0.62;0.00;0.00;0.62;3.67;3.10;;;25.70;24.10;;;;;;2258672;61;20412;-64
2023/05/21 04:52:54;0.00;0.00;0.62;0.00;0.00;0.62;3.20;2.90;;;25.70;24.10;;;;;;2262913;61;20520;-65
2023/05/21 04:55:40;0.00;0.00;0.62;0.00;0.00;0.62;3.00;2.80;;;25.70;24.10;;;;;;2260397;61;20368;-65
2023/05/21 04:58:25;0.00;0.00;0.62;0.00;0.00;0.62;3.57;3.03;;;25.70;24.10;;;;;;2259061;61;20364;-66
2023/05/21 05:01:11;0.00;0.00;0.62;0.00;0.00;0.62;3.10;2.80;;;25.70;24.10;;;;;;2260520;61;20389;-64
2023/05/21 05:03:55;0.00;0.00;0.62;0.00;0.00;0.62;3.20;2.90;;;25.70;24.10;;;;;;2259348;61;20385;-64
2023/05/21 05:06:40;0.00;0.00;0.62;0.00;0.00;0.62;2.77;2.57;;;25.70;24.10;;;;;;2260244;61;20436;-64
2023/05/21 05:09:24;0.00;0.00;0.62;0.00;0.00;0.62;3.00;2.70;;;25.70;24.10;;;;;;2259611;61;20360;-63
2023/05/21 05:12:10;0.00;0.00;0.62;0.00;0.00;0.62;4.07;3.67;;;25.70;24.10;;;;;;2258953;61;20376;-65
2023/05/21 05:14:55;0.00;0.00;0.62;0.00;0.00;0.62;3.30;2.70;;;25.70;24.10;;;;;;2262981;61;20424;-66
2023/05/21 05:17:41;0.00;0.00;0.62;0.00;0.00;0.62;3.40;3.10;;;25.70;24.10;;;;;;2259690;61;20361;-66
2023/05/21 05:20:26;0.00;0.00;0.62;0.00;0.00;0.62;3.43;2.93;;;25.70;24.10;;;;;;2258527;61;20409;-65
2023/05/21 05:23:11;0.00;0.00;0.62;0.00;0.00;0.62;3.73;3.43;;;25.70;24.70;;;;;;2260412;61;20411;-64
2023/05/21 05:25:57;0.00;0.00;0.62;0.00;0.00;0.62;3.33;3.03;;;25.70;24.10;;;;;;2259418;61;20360;-65
2023/05/21 05:28:42;0.00;0.00;0.62;0.00;0.00;0.62;3.07;2.77;;;25.70;24.10;;;;;;2259493;61;20426;-64
2023/05/21 05:31:27;0.00;0.00;0.62;0.00;0.00;0.62;3.10;2.80;;;25.70;24.20;;;;;;2260214;61;20353;-65
2023/05/21 05:34:13;0.00;0.00;0.62;0.00;0.00;0.62;3.20;2.90;;;25.70;24.20;;;;;;2259423;61;20491;-65
2023/05/21 05:36:58;0.00;0.00;0.62;0.00;0.00;0.62;3.77;2.90;;;25.70;24.20;;;;;;2258327;61;20377;-66
2023/05/21 05:39:43;0.00;0.00;0.62;0.00;0.00;0.62;3.00;2.77;;;25.70;24.20;;;;;;2256250;61;20465;-65
2023/05/21 05:42:28;0.00;0.00;0.62;0.00;0.00;0.62;4.53;3.63;;;25.70;24.20;;;;;;2255664;61;20389;-65
2023/05/21 05:45:14;0.00;0.00;0.62;0.00;0.00;0.62;3.50;2.93;;;25.70;24.20;;;;;;2254313;61;20388;-65
2023/05/21 05:47:59;0.00;0.00;0.62;0.00;0.00;0.62;3.40;3.10;;;25.70;24.20;;;;;;2256733;61;20368;-66
2023/05/21 05:50:47;0.00;0.00;0.62;0.00;0.00;0.62;3.30;3.00;;;25.70;24.20;;;;;;2255713;61;20380;-65
2023/05/21 05:53:32;0.00;0.00;0.62;0.00;0.00;0.62;3.70;3.27;;;25.70;24.20;;;;;;2495776;53;20420;-66
2023/05/21 05:56:17;0.00;0.00;0.62;0.00;0.00;0.62;3.20;2.90;;;25.70;24.20;;;;;;2256476;61;20453;-65
2023/05/21 05:59:03;0.00;0.00;0.62;0.00;0.00;0.62;3.73;3.40;;;25.70;24.20;;;;;;2256577;61;20361;-66
2023/05/21 06:01:49;0.00;0.00;0.62;0.00;0.00;0.62;4.03;3.47;;;25.70;24.20;;;;;;2256502;61;20380;-65
2023/05/21 06:04:35;0.00;0.00;0.62;0.00;0.00;0.62;3.67;2.80;;;25.70;24.20;;;;;;2258874;61;20368;-65
2023/05/21 06:07:21;0.00;0.00;0.62;0.00;0.00;0.62;3.67;3.37;;;25.70;24.30;;;;;;2259760;61;20391;-65
2023/05/21 06:10:07;0.00;0.00;0.62;0.00;0.00;0.62;3.30;3.00;;;25.70;24.30;;;;;;2259631;61;20364;-65
2023/05/21 06:12:52;0.00;0.00;0.62;0.00;0.00;0.62;4.90;3.33;;;25.70;24.20;;;;;;2259475;61;20385;-65
2023/05/21 06:15:41;0.00;0.00;0.62;0.00;0.00;0.62;3.80;3.50;;;25.70;24.30;;;;;;2254429;61;20854;-65
2023/05/21 06:18:26;0.00;0.00;0.62;0.00;0.00;0.62;3.80;3.30;;;25.70;24.30;;;;;;2259195;61;20411;-65
2023/05/21 06:21:11;0.00;0.00;0.62;0.00;0.00;0.62;3.77;3.47;;;25.70;24.30;;;;;;2259963;61;20384;-66
2023/05/21 06:23:58;0.00;0.00;0.62;0.00;0.00;0.62;4.37;3.23;;;25.70;24.30;;;;;;2259477;61;20471;-65
2023/05/21 06:26:43;0.00;0.00;0.62;0.00;0.00;0.62;3.07;2.77;;;25.70;24.30;;;;;;2256133;61;20423;-65
2023/05/21 06:29:28;0.00;0.00;0.62;0.00;0.00;0.62;3.70;3.17;;;25.70;24.30;;;;;;2259664;61;21052;-66
2023/05/21 06:32:14;0.00;0.00;0.62;0.00;0.00;0.62;4.60;3.77;;;25.70;24.30;;;;;;2256547;61;20760;-64
2023/05/21 06:34:59;0.00;0.00;0.62;0.00;0.00;0.62;3.90;3.57;;;25.80;24.40;;;;;;2258854;61;20361;-66
2023/05/21 06:37:45;0.00;0.00;0.62;0.00;0.00;0.62;3.47;3.17;;;25.70;24.30;;;;;;2260366;61;20468;-65
2023/05/21 06:40:31;0.00;0.00;0.62;0.00;0.00;0.62;4.10;3.70;;;25.70;24.30;;;;;;2256324;61;20361;-66
2023/05/21 06:43:17;0.00;0.00;0.62;0.00;0.00;0.62;4.70;4.20;;;25.70;24.30;;;;;;2257153;61;20392;-65
2023/05/21 06:46:20;0.00;0.00;0.62;0.00;0.00;0.62;4.10;3.73;;;25.70;24.30;;;;;;2259835;61;20368;-65
2023/05/21 06:49:05;0.00;0.00;0.62;0.00;0.00;0.62;4.80;4.13;;;25.70;24.30;;;;;;2258737;61;20365;-65
2023/05/21 06:51:50;0.00;0.00;0.62;0.00;0.00;0.62;4.73;4.33;;;25.70;24.40;;;;;;2260331;61;20357;-65
2023/05/21 06:54:35;0.00;0.00;0.62;0.00;0.00;0.62;4.17;3.77;;;25.70;24.30;;;;;;2256634;61;20412;-65
2023/05/21 06:57:22;0.00;0.00;0.62;0.00;0.00;0.62;6.10;3.80;;;25.70;24.30;;;;;;2259065;61;20380;-65
2023/05/21 07:00:08;0.00;0.00;0.62;0.00;0.00;0.62;4.43;4.03;;;25.70;24.40;;;;;;2257132;61;20400;-65
2023/05/21 07:02:53;0.00;0.00;0.62;0.00;0.00;0.62;4.53;4.13;;;25.80;24.90;;;;;;2259711;61;20997;-65
2023/05/21 07:05:39;0.00;0.00;0.62;0.00;0.00;0.62;4.43;4.03;;;25.80;24.40;;;;;;2257736;61;20364;-65
2023/05/21 07:08:23;0.00;0.00;0.62;0.00;0.00;0.62;4.73;4.30;;;25.80;24.50;;;;;;2257391;61;20411;-66
2023/05/21 07:11:09;0.00;0.00;0.62;0.00;0.00;0.62;5.40;4.90;;;25.80;24.50;;;;;;2256349;61;20356;-66
2023/05/21 07:14:02;0.00;0.00;0.62;0.00;0.00;0.62;4.90;4.47;;;25.80;24.50;;;;;;2257750;61;20443;-65
2023/05/21 07:16:49;0.00;0.00;0.62;0.00;0.00;0.62;4.73;4.33;;;25.80;24.50;;;;;;2259872;61;20369;-64
2023/05/21 07:19:34;0.00;0.00;0.62;0.00;0.00;0.62;6.20;5.30;;;25.80;24.50;;;;;;2255024;61;20413;-65
2023/05/21 07:22:19;0.00;0.00;0.62;0.00;0.00;0.62;5.50;5.00;;;25.80;24.60;;;;;;2253515;61;20516;-65
2023/05/21 07:25:06;0.00;0.00;0.62;0.00;0.00;0.62;5.20;4.70;;;25.80;24.60;;;;;;2255937;61;20393;-66
2023/05/21 07:27:51;0.00;0.00;0.62;0.00;0.00;0.62;6.10;5.50;;;25.80;24.60;;;;;;2256574;61;20380;-65
2023/05/21 07:30:39;0.00;0.00;0.62;0.00;0.00;0.62;6.30;5.00;;;25.80;24.60;;;;;;2255705;61;20500;-65
2023/05/21 07:33:28;0.00;0.00;0.62;0.00;0.00;0.62;5.60;4.93;;;25.80;24.60;;;;;;2255488;61;20385;-65
2023/05/21 07:36:12;0.00;0.00;0.62;0.00;0.00;0.62;5.47;5.07;;;25.80;24.60;;;;;;2257176;61;20412;-65
2023/05/21 07:38:58;0.00;0.00;0.62;0.00;0.00;0.62;4.93;4.53;;;25.80;24.60;;;;;;2255653;61;20412;-66
2023/05/21 07:41:43;0.00;0.00;0.62;0.00;0.00;0.62;4.83;4.43;;;25.80;25.20;;;;;;2255749;61;20398;-66
2023/05/21 07:44:28;0.00;0.00;0.62;0.00;0.00;0.62;5.80;5.30;;;25.80;24.70;;;;;;2256368;61;20358;-66
2023/05/21 07:47:15;0.00;0.00;0.62;0.00;0.00;0.62;5.77;5.27;;;25.80;24.70;;;;;;2253109;61;20454;-66
2023/05/21 07:50:00;0.00;0.00;0.62;0.00;0.00;0.62;6.50;5.90;;;25.80;24.70;;;;;;2256141;61;20485;-66
2023/05/21 07:52:45;0.00;0.00;0.62;0.00;0.00;0.62;6.83;6.17;;;25.80;24.80;;;;;;2255674;61;20386;-66
2023/05/21 07:55:30;0.00;0.00;0.62;0.00;0.00;0.62;6.73;6.13;;;25.80;24.80;;;;;;2252902;61;20365;-65
2023/05/21 07:58:15;0.00;0.00;0.62;0.00;0.00;0.62;6.90;6.30;;;25.80;24.80;;;;;;2256384;61;20388;-66
2023/05/21 08:01:00;0.00;0.00;0.62;0.00;0.00;0.62;6.30;5.70;;;25.80;24.80;;;;;;2255499;61;20917;-66
2023/05/21 08:03:47;0.00;0.00;0.62;0.00;0.00;0.62;7.07;6.30;;;25.80;24.80;;;;;;2255502;61;20385;-65
2023/05/21 08:06:33;0.00;0.00;0.62;0.00;0.00;0.62;6.77;6.07;;;25.80;24.80;;;;;;2256430;61;20451;-66
2023/05/21 08:09:18;0.00;0.00;0.62;0.00;0.00;0.62;7.67;6.97;;;25.80;24.80;;;;;;2255767;61;20361;-66
2023/05/21 08:12:04;0.00;0.00;0.62;0.00;0.00;0.62;6.80;6.20;;;25.80;24.90;;;;;;2256032;61;20389;-66
2023/05/21 08:14:49;0.00;0.00;0.62;0.00;0.00;0.62;6.83;6.23;;;25.80;24.90;;;;;;2253090;61;20871;-64
2023/05/21 08:17:34;0.00;0.00;0.62;0.00;0.00;0.62;7.87;7.17;;;25.80;24.90;;;;;;2255331;61;20777;-64
2023/05/21 08:20:21;0.00;0.00;0.62;0.00;0.00;0.62;7.57;6.87;;;25.90;25.00;;;;;;2256674;61;20361;-64
2023/05/21 08:23:08;0.00;0.00;0.62;0.00;0.00;0.62;7.17;6.57;;;25.90;25.00;;;;;;2255758;61;20378;-65
2023/05/21 08:25:58;0.00;0.00;0.62;0.00;0.00;0.62;6.93;6.30;;;25.90;24.90;;;;;;2255583;61;20401;-65
2023/05/21 08:28:43;0.00;0.00;0.62;0.00;0.00;0.62;7.27;6.57;;;25.90;24.90;;;;;;2253537;61;20369;-65
2023/05/21 08:31:29;0.00;0.00;0.62;0.00;0.00;0.62;7.80;7.10;;;25.90;25.00;;;;;;2255533;61;20854;-66
2023/05/21 08:34:13;0.00;0.00;0.62;0.00;0.00;0.62;7.73;6.70;;;25.90;25.00;;;;;;2255849;61;20856;-64
2023/05/21 08:37:05;0.00;0.00;0.62;0.00;0.00;0.62;7.80;7.10;;;25.90;25.00;;;;;;2255953;61;20374;-65
2023/05/21 08:40:12;0.00;0.00;0.62;0.00;0.00;0.62;7.53;6.73;;;25.90;25.00;;;;;;2255500;61;20956;-65
2023/05/21 08:43:00;0.00;0.00;0.62;0.00;0.00;0.62;8.53;7.83;;;25.90;25.00;;;;;;2256226;61;20401;-65
2023/05/21 08:46:03;0.00;0.00;0.62;0.00;0.00;0.62;7.90;7.10;;;25.90;25.00;;;;;;2255455;61;20357;-65
2023/05/21 08:48:54;0.00;0.00;0.62;0.00;0.00;0.62;7.47;6.87;;;25.90;25.10;;;;;;2256004;61;20812;-64
2023/05/21 08:51:40;0.00;0.00;0.62;0.00;0.00;0.62;7.37;6.73;;;25.90;25.10;;;;;;2255822;61;20361;-65
2023/05/21 08:54:26;0.00;0.00;0.62;0.00;0.00;0.62;7.83;7.03;;;25.90;25.10;;;;;;2255023;61;20381;-66
2023/05/21 08:57:14;0.00;0.00;0.62;0.00;0.00;0.62;7.90;7.20;;;25.90;25.20;;;;;;2256241;61;20420;-66
2023/05/21 09:00:00;0.00;0.00;0.62;0.00;0.00;0.62;8.70;7.90;;;25.90;25.10;;;;;;2256048;61;20362;-65
2023/05/21 09:02:46;0.00;0.00;0.62;0.00;0.00;0.62;9.97;8.60;;;26.00;25.20;;;;;;2255183;61;20393;-65
2023/05/21 09:05:30;0.00;0.00;0.62;0.00;0.00;0.62;8.20;7.50;;;26.00;25.30;;;;;;2253527;61;20357;-65
2023/05/21 09:08:18;0.00;0.00;0.62;0.00;0.00;0.62;9.00;8.13;;;25.90;25.20;;;;;;2255455;61;20365;-66
2023/05/21 09:11:15;0.00;0.00;0.62;0.00;0.00;0.62;8.87;8.03;;;26.00;25.40;;;;;;2252885;61;20439;-66
2023/05/21 09:14:06;0.00;0.00;0.62;0.00;0.00;0.62;9.07;8.20;;;26.00;25.30;;;;;;2255501;61;20937;-66
2023/05/21 09:17:11;0.00;0.00;0.62;0.00;0.00;0.62;8.87;8.07;;;26.00;25.30;;;;;;2255037;61;20452;-65
2023/05/21 09:20:13;0.00;0.00;0.62;0.00;0.00;0.62;8.63;7.90;;;26.00;25.40;;;;;;2255769;61;20894;-66
2023/05/21 09:23:05;0.00;0.00;0.62;0.00;0.00;0.62;8.13;7.43;;;26.00;25.40;;;;;;2255256;61;20482;-65
2023/05/21 09:25:51;0.00;0.00;0.62;0.00;0.00;0.62;8.60;7.87;;;26.00;25.40;;;;;;2255641;61;20366;-65
2023/05/21 09:28:44;0.00;0.00;0.62;0.00;0.00;0.62;8.13;7.43;;;26.00;25.40;;;;;;2252821;61;20570;-66
2023/05/21 09:31:29;0.00;0.00;0.62;0.00;0.00;0.62;8.67;7.87;;;26.00;25.40;;;;;;2255476;61;20377;-65
2023/05/21 09:34:14;0.00;0.00;0.62;0.00;0.00;0.62;9.77;8.87;;;26.00;25.40;;;;;;2256512;61;20421;-65
2023/05/21 09:37:01;0.00;0.00;0.62;0.00;0.00;0.62;8.43;7.70;;;26.00;25.40;;;;;;2252908;61;20370;-66
2023/05/21 09:39:47;0.00;0.00;0.62;0.00;0.00;0.62;9.10;8.40;;;26.00;25.40;;;;;;2254770;61;20786;-65
2023/05/21 09:42:32;0.00;0.00;0.62;0.00;0.00;0.62;8.43;7.73;;;26.00;25.40;;;;;;2255981;61;20493;-66
2023/05/21 09:45:19;0.00;0.00;0.62;0.00;0.00;0.62;9.53;8.63;;;26.00;25.40;;;;;;2257669;61;20370;-65
2023/05/21 09:48:04;0.00;0.00;0.62;0.00;0.00;0.62;9.37;8.57;;;26.00;25.40;;;;;;2255927;61;20362;-69
2023/05/21 09:50:50;0.00;0.00;0.62;0.00;0.00;0.62;9.87;8.97;;;26.00;25.40;;;;;;2255702;61;20450;-65
2023/05/21 09:53:35;0.00;0.00;0.62;0.00;0.00;0.62;8.10;7.40;;;26.10;25.50;;;;;;2255058;61;20415;-65
2023/05/21 09:56:23;0.00;0.00;0.62;0.00;0.00;0.62;7.80;7.10;;;26.10;25.50;;;;;;2256656;61;20444;-63
2023/05/21 09:59:08;0.00;0.00;0.62;0.00;0.00;0.62;9.60;8.80;;;26.10;25.50;;;;;;2255390;61;20442;-66
2023/05/21 10:01:54;0.00;0.00;0.62;0.00;0.00;0.62;9.10;8.20;;;26.10;25.50;;;;;;2255346;61;20837;-65
2023/05/21 10:04:39;0.00;0.00;0.62;0.00;0.00;0.62;9.00;8.30;;;26.10;25.50;;;;;;2255797;61;20802;-65
2023/05/21 10:07:25;0.00;0.00;0.62;0.00;0.00;0.62;8.70;7.90;;;26.10;26.00;;;;;;2255747;61;20412;-66
2023/05/21 10:10:13;0.00;0.00;0.62;0.00;0.00;0.62;10.40;9.40;;;26.10;25.50;;;;;;2255647;61;20832;-65
2023/05/21 10:13:03;0.00;0.00;0.62;0.00;0.00;0.62;8.83;8.03;;;26.10;25.50;;;;;;2255811;61;20404;-65
2023/05/21 10:15:57;0.00;0.00;0.62;0.00;0.00;0.62;9.27;8.40;;;26.20;25.50;;;;;;2251990;61;21010;-63
2023/05/21 10:18:45;0.00;0.00;0.62;0.00;0.00;0.62;8.90;8.00;;;26.20;25.50;;;;;;2257145;61;20431;-65
2023/05/21 10:21:32;0.00;0.00;0.62;0.00;0.00;0.62;9.03;8.23;;;26.20;25.50;;;;;;2259415;61;20491;-65
2023/05/21 10:24:17;0.00;0.00;0.62;0.00;0.00;0.62;8.73;8.03;;;26.20;25.50;;;;;;2259459;61;20417;-63
2023/05/21 10:27:03;0.00;0.00;0.62;0.00;0.00;0.62;9.50;8.60;;;26.20;25.50;;;;;;2260245;61;20369;-64
2023/05/21 10:29:48;0.00;0.00;0.62;0.00;0.00;0.62;8.93;8.13;;;26.20;25.50;;;;;;2259157;61;20361;-66
2023/05/21 10:32:34;0.00;0.00;0.62;0.00;0.00;0.62;9.50;8.70;;;26.20;25.60;;;;;;2259763;61;20475;-65
2023/05/21 10:35:21;0.00;0.00;0.62;0.00;0.00;0.62;9.27;8.47;;;26.20;25.60;;;;;;2260164;61;20450;-63
2023/05/21 10:38:08;0.00;0.00;0.62;0.00;0.00;0.62;10.00;9.10;;;26.20;25.60;;;;;;2259768;61;20976;-65
2023/05/21 10:40:54;0.00;0.00;0.62;0.00;0.00;0.62;10.17;9.27;;;26.20;25.60;;;;;;2260861;61;20813;-65
2023/05/21 10:43:55;0.00;0.00;0.62;0.00;0.00;0.62;8.93;8.13;;;26.30;25.70;;;;;;2260767;61;20388;-64
2023/05/21 10:47:27;0.00;0.00;0.62;0.00;0.00;0.62;10.10;9.30;;;26.30;25.70;;;;;;2260195;61;20910;-65
2023/05/21 10:50:37;0.00;0.00;0.62;0.00;0.00;0.62;10.57;9.57;;;26.30;25.70;;;;;;2260564;61;20365;-63
2023/05/21 10:53:33;0.00;0.00;0.62;0.00;0.00;0.62;9.07;8.27;;;26.30;25.80;;;;;;2259837;61;20836;-64
2023/05/21 10:56:24;0.00;0.00;0.62;0.00;0.00;0.62;9.90;9.10;;;26.30;25.80;;;;;;2261109;61;20457;-63
2023/05/21 10:59:21;0.00;0.00;0.62;0.00;0.00;0.62;10.60;9.70;;;26.30;25.80;;;;;;2260037;61;20384;-64